createdAt,value
2022-10-04T00:55:57.401Z,101507.97
2022-10-04T00:58:23.721Z,101500.22
2022-10-04T01:00:49.888Z,101501.81
2022-10-04T01:03:16.038Z,101507.88
2022-10-04T01:05:42.175Z,101496.66
2022-10-04T01:08:08.278Z,101488.06
2022-10-04T01:10:34.398Z,101483.69
2022-10-04T01:13:00.539Z,101486.41
2022-10-04T01:15:26.693Z,101485.56
2022-10-04T01:17:52.820Z,101469.91
2022-10-04T01:20:18.938Z,101477.78
2022-10-04T01:22:45.082Z,101471.72
2022-10-04T01:25:11.224Z,101463.00
2022-10-04T01:27:37.349Z,101468.28
2022-10-04T01:30:03.476Z,101458.88
2022-10-04T01:32:29.641Z,101453.03
2022-10-04T01:34:55.788Z,101452.28
2022-10-04T01:37:21.895Z,101459.25
2022-10-04T01:39:48.057Z,101456.75
2022-10-04T01:42:14.176Z,101455.91
2022-10-04T01:44:40.294Z,101455.09
2022-10-04T01:47:06.448Z,101449.91
2022-10-04T01:49:32.586Z,101454.19
2022-10-04T01:51:58.723Z,101449.09
2022-10-04T01:54:24.855Z,101449.09
2022-10-04T01:56:50.979Z,101436.09
2022-10-04T01:59:17.121Z,101436.06
2022-10-04T02:01:43.577Z,101431.78
2022-10-04T02:04:09.950Z,101436.00
2022-10-04T02:06:36.085Z,101430.09
2022-10-04T02:09:02.206Z,101430.97
2022-10-04T02:11:28.321Z,101431.81
2022-10-04T02:13:54.462Z,101425.75
2022-10-04T02:16:20.709Z,101425.75
2022-10-04T02:18:46.925Z,101429.97
2022-10-04T02:21:13.061Z,101420.50
2022-10-04T02:23:39.208Z,101414.38
2022-10-04T02:26:05.336Z,101411.75
2022-10-04T02:28:31.500Z,101411.78
2022-10-04T02:30:57.775Z,101410.16
2022-10-04T02:33:23.912Z,101411.03
2022-10-04T02:35:50.055Z,101400.66
2022-10-04T02:38:16.191Z,101393.78
2022-10-04T02:40:42.314Z,101398.25
2022-10-04T02:43:08.462Z,101392.19
2022-10-04T02:45:34.567Z,101388.78
2022-10-04T02:48:00.693Z,101388.78
2022-10-04T02:50:26.842Z,101385.31
2022-10-04T02:52:52.994Z,101395.66
2022-10-04T02:55:19.128Z,101384.44
2022-10-04T02:57:45.233Z,101377.59
2022-10-04T03:00:11.339Z,101380.22
2022-10-04T03:02:37.512Z,101387.94
2022-10-04T03:05:03.680Z,101387.13
2022-10-04T03:07:29.825Z,101381.97
2022-10-04T03:09:55.958Z,101379.28
2022-10-04T03:12:22.075Z,101387.94
2022-10-04T03:14:48.218Z,101386.25
2022-10-04T03:17:14.318Z,101381.91
2022-10-04T03:19:40.446Z,101381.94
2022-10-04T03:22:06.596Z,101387.94
2022-10-04T03:24:32.712Z,101385.34
2022-10-04T03:26:58.841Z,101389.66
2022-10-04T03:29:24.961Z,101380.13
2022-10-04T03:31:51.115Z,101382.75
2022-10-04T03:34:17.364Z,101380.16
2022-10-04T03:36:43.474Z,101380.25
2022-10-04T03:39:09.621Z,101375.19
2022-10-04T03:41:35.740Z,101370.91
2022-10-04T03:44:05.019Z,101368.34
2022-10-04T03:46:31.419Z,101369.19
2022-10-04T03:48:57.545Z,101369.31
2022-10-04T03:51:23.706Z,101377.00
2022-10-04T03:53:49.835Z,101382.19
2022-10-04T03:56:15.947Z,101389.06
2022-10-04T03:58:42.092Z,101395.06
2022-10-04T04:01:08.276Z,101387.16
2022-10-04T04:03:34.432Z,101387.16
2022-10-04T04:06:00.569Z,101387.94
2022-10-04T04:08:26.736Z,101387.94
2022-10-04T04:10:52.849Z,101388.81
2022-10-04T04:13:18.964Z,101389.69
2022-10-04T04:15:45.240Z,101389.59
2022-10-04T04:18:11.370Z,101381.84
2022-10-04T04:20:37.517Z,101382.69
2022-10-04T04:23:03.609Z,101391.25
2022-10-04T04:25:29.779Z,101392.09
2022-10-04T04:27:55.913Z,101392.09
2022-10-04T04:30:22.052Z,101386.88
2022-10-04T04:32:48.188Z,101390.34
2022-10-04T04:35:14.310Z,101392.78
2022-10-04T04:37:40.414Z,101396.22
2022-10-04T04:40:06.564Z,101402.31
2022-10-04T04:42:32.675Z,101400.56
2022-10-04T04:44:58.810Z,101388.50
2022-10-04T04:47:24.940Z,101391.91
2022-10-04T04:49:51.051Z,101395.41
2022-10-04T04:52:17.213Z,101397.94
2022-10-04T04:54:43.366Z,101405.69
2022-10-04T04:57:09.496Z,101408.22
2022-10-04T04:59:35.633Z,101399.56
2022-10-04T05:02:01.816Z,101399.50
2022-10-04T05:04:27.980Z,101395.19
2022-10-04T05:06:54.097Z,101392.63
2022-10-04T05:09:20.264Z,101396.00
2022-10-04T05:11:46.416Z,101396.91
2022-10-04T05:14:12.588Z,101398.63
2022-10-04T05:16:38.853Z,101397.00
2022-10-04T05:19:05.098Z,101391.03
2022-10-04T05:21:31.201Z,101391.13
2022-10-04T05:23:57.396Z,101397.25
2022-10-04T05:26:23.521Z,101397.38
2022-10-04T05:28:49.671Z,101391.44
2022-10-04T05:31:15.829Z,101389.81
2022-10-04T05:33:45.044Z,101390.59
2022-10-04T05:36:11.200Z,101385.47
2022-10-04T05:38:37.354Z,101385.53
2022-10-04T05:41:03.500Z,101390.75
2022-10-04T05:43:29.653Z,101387.38
2022-10-04T05:45:55.851Z,101384.84
2022-10-04T05:48:24.043Z,101380.50
2022-10-04T05:50:52.980Z,101385.66
2022-10-04T05:53:21.844Z,101382.91
2022-10-04T05:55:48.005Z,101377.69
2022-10-04T05:58:14.117Z,101385.28
2022-10-04T06:00:40.299Z,101381.00
2022-10-04T06:03:06.418Z,101380.09
2022-10-04T06:05:32.530Z,101372.22
2022-10-04T06:07:58.689Z,101377.34
2022-10-04T06:10:24.807Z,101377.22
2022-10-04T06:12:50.981Z,101385.66
2022-10-04T06:15:17.117Z,101390.00
2022-10-04T06:17:43.248Z,101386.47
2022-10-04T06:20:09.379Z,101395.09
2022-10-04T06:22:35.551Z,101402.78
2022-10-04T06:25:01.676Z,101404.47
2022-10-04T06:27:27.803Z,101402.63
2022-10-04T06:29:53.942Z,101405.06
2022-10-04T06:32:20.102Z,101415.25
2022-10-04T06:34:46.288Z,101418.56
2022-10-04T06:37:12.395Z,101422.72
2022-10-04T06:39:38.525Z,101423.47
2022-10-04T06:42:04.673Z,101418.16
2022-10-04T06:44:39.590Z,101418.91
2022-10-04T06:47:13.202Z,101417.84
2022-10-04T06:49:39.332Z,101412.53
2022-10-04T06:52:05.511Z,101411.53
2022-10-04T06:54:31.637Z,101414.03
2022-10-04T06:56:57.790Z,101412.19
2022-10-04T06:59:23.964Z,101413.88
2022-10-04T07:01:50.229Z,101406.78
2022-10-04T07:04:16.421Z,101412.00
2022-10-04T07:06:42.636Z,101403.28
2022-10-04T07:09:08.806Z,101411.59
2022-10-04T07:11:34.925Z,101426.28
2022-10-04T07:14:01.049Z,101414.88
2022-10-04T07:16:28.286Z,101428.63
2022-10-04T07:18:54.420Z,101423.34
2022-10-04T07:21:20.564Z,101429.25
2022-10-04T07:23:46.708Z,101429.88
2022-10-04T07:26:12.837Z,101430.91
2022-10-04T07:28:39.075Z,101434.34
2022-10-04T07:31:05.316Z,101446.16
2022-10-04T07:33:31.476Z,101443.31
2022-10-04T07:35:57.625Z,101448.16
2022-10-04T07:38:23.752Z,101445.13
2022-10-04T07:40:49.920Z,101451.88
2022-10-04T07:43:16.033Z,101445.81
2022-10-04T07:45:42.295Z,101438.56
2022-10-04T07:48:08.500Z,101424.59
2022-10-04T07:50:34.625Z,101419.91
2022-10-04T07:53:00.765Z,101423.28
2022-10-04T07:55:26.909Z,101422.44
2022-10-04T07:57:53.089Z,101421.28
2022-10-04T08:00:19.208Z,101420.81
2022-10-04T08:02:45.485Z,101435.69
2022-10-04T08:05:11.739Z,101434.38
2022-10-04T08:07:37.880Z,101440.34
2022-10-04T08:10:03.999Z,101435.75
2022-10-04T08:12:34.647Z,101433.72
2022-10-04T08:15:01.991Z,101422.88
2022-10-04T08:17:29.325Z,101424.31
2022-10-04T08:19:55.441Z,101422.97
2022-10-04T08:22:21.597Z,101414.72
2022-10-04T08:24:52.607Z,101417.22
2022-10-04T08:27:19.597Z,101418.25
2022-10-04T08:29:45.769Z,101421.84
2022-10-04T08:32:11.897Z,101422.13
2022-10-04T08:34:38.116Z,101415.25
2022-10-04T08:37:04.261Z,101418.63
2022-10-04T08:39:30.420Z,101409.78
2022-10-04T08:41:56.561Z,101406.78
2022-10-04T08:44:22.713Z,101407.72
2022-10-04T08:46:48.926Z,101406.47
2022-10-04T08:49:15.102Z,101400.88
2022-10-04T08:51:41.240Z,101395.78
2022-10-04T08:54:07.382Z,101390.72
2022-10-04T08:56:33.711Z,101396.22
2022-10-04T08:58:59.917Z,101389.81
2022-10-04T09:01:26.100Z,101385.22
2022-10-04T09:03:52.257Z,101382.47
2022-10-04T09:06:18.449Z,101382.63
2022-10-04T09:08:44.575Z,101393.25
2022-10-04T09:11:10.749Z,101391.34
2022-10-04T09:13:36.876Z,101395.75
2022-10-04T09:16:03.135Z,101367.56
2022-10-04T09:18:29.372Z,101392.59
2022-10-04T09:20:55.552Z,101384.16
2022-10-04T09:23:21.693Z,101392.97
2022-10-04T09:25:47.825Z,101390.34
2022-10-04T09:28:13.990Z,101390.31
2022-10-04T09:30:40.175Z,101399.34
2022-10-04T09:33:06.301Z,101392.69
2022-10-04T09:35:33.649Z,101389.38
2022-10-04T09:37:59.790Z,101384.03
2022-10-04T09:40:25.925Z,101376.94
2022-10-04T09:42:52.074Z,101385.16
2022-10-04T09:45:18.196Z,101389.31
2022-10-04T09:47:44.327Z,101392.50
2022-10-04T09:50:10.469Z,101390.72
2022-10-04T09:52:36.596Z,101384.06
2022-10-04T09:55:02.741Z,101388.28
2022-10-04T09:57:28.940Z,101384.22
2022-10-04T09:59:55.152Z,101384.88
2022-10-04T10:02:21.302Z,101382.91
2022-10-04T10:04:47.453Z,101392.59
2022-10-04T10:07:13.576Z,101379.41
2022-10-04T10:09:39.721Z,101378.63
2022-10-04T10:12:05.884Z,101380.03
2022-10-04T10:14:32.001Z,101379.69
2022-10-04T10:16:58.124Z,101366.19
2022-10-04T10:19:28.198Z,101376.06
2022-10-04T10:21:54.608Z,101370.31
2022-10-04T10:24:20.772Z,101375.19
2022-10-04T10:26:47.068Z,101377.00
2022-10-04T10:29:13.300Z,101370.63
2022-10-04T10:31:39.510Z,101370.84
2022-10-04T10:34:05.701Z,101375.53
2022-10-04T10:36:31.857Z,101367.34
2022-10-04T10:38:58.028Z,101367.41
2022-10-04T10:41:24.169Z,101363.78
2022-10-04T10:43:50.298Z,101369.91
2022-10-04T10:46:16.480Z,101362.50
2022-10-04T10:48:42.646Z,101362.41
2022-10-04T10:51:08.755Z,101351.69
2022-10-04T10:53:34.889Z,101360.06
2022-10-04T10:56:01.008Z,101356.97
2022-10-04T10:58:27.161Z,101356.66
2022-10-04T11:00:53.314Z,101360.50
2022-10-04T11:03:23.219Z,101353.81
2022-10-04T11:05:51.587Z,101355.72
2022-10-04T11:08:17.736Z,101350.84
2022-10-04T11:10:43.868Z,101342.34
2022-10-04T11:13:10.026Z,101341.94
2022-10-04T11:15:36.149Z,101335.34
2022-10-04T11:20:52.709Z,101330.25
2022-10-04T11:23:18.858Z,101327.78
2022-10-04T11:25:44.992Z,101332.03
2022-10-04T11:28:11.207Z,101337.53
2022-10-04T11:30:37.392Z,101329.25
2022-10-04T11:33:03.524Z,101327.00
2022-10-04T11:35:29.673Z,101322.63
2022-10-04T11:37:55.810Z,101319.28
2022-10-04T11:40:22.097Z,101318.06
2022-10-04T11:42:48.254Z,101318.41
2022-10-04T11:45:14.404Z,101312.00
2022-10-04T11:47:40.962Z,101316.34
2022-10-04T11:50:07.127Z,101321.59
2022-10-04T11:52:33.271Z,101315.16
2022-10-04T11:54:59.440Z,101318.28
2022-10-04T11:57:25.569Z,101316.75
2022-10-04T11:59:51.816Z,101316.22
2022-10-04T12:02:17.985Z,101312.91
2022-10-04T12:04:44.179Z,101315.72
2022-10-04T12:07:10.397Z,101307.09
2022-10-04T12:09:36.545Z,101306.09
2022-10-04T12:12:02.663Z,101301.41
2022-10-04T12:14:28.790Z,101298.41
2022-10-04T12:16:54.972Z,101303.94
2022-10-04T12:19:21.107Z,101298.19
2022-10-04T12:21:47.263Z,101295.47
2022-10-04T12:24:13.398Z,101282.13
2022-10-04T12:26:39.556Z,101285.19
2022-10-04T12:29:05.716Z,101266.06
2022-10-04T12:31:31.929Z,101259.94
2022-10-04T12:33:58.159Z,101265.44
2022-10-04T12:36:24.450Z,101268.56
2022-10-04T12:38:50.567Z,101255.56
2022-10-04T12:41:16.733Z,101256.44
2022-10-04T12:43:42.868Z,101251.25
2022-10-04T12:46:09.030Z,101254.50
2022-10-04T12:48:35.182Z,101255.56
2022-10-04T12:51:01.353Z,101253.47
2022-10-04T12:53:27.479Z,101247.53
2022-10-04T12:55:53.606Z,101246.38
2022-10-04T12:58:19.749Z,101243.78
2022-10-04T13:00:45.996Z,101239.84
2022-10-04T13:03:12.135Z,101236.78
2022-10-04T13:05:38.323Z,101236.38
2022-10-04T13:08:04.462Z,101232.75
2022-10-04T13:10:30.632Z,101227.91
2022-10-04T13:12:56.794Z,101226.31
2022-10-04T13:15:22.977Z,101229.38
2022-10-04T13:17:49.117Z,101219.75
2022-10-04T13:20:15.243Z,101216.13
2022-10-04T13:22:56.352Z,101219.19
2022-10-04T13:25:23.324Z,101221.13
2022-10-04T13:27:49.512Z,101212.53
2022-10-04T13:30:15.650Z,101215.19
2022-10-04T13:32:41.763Z,101218.22
2022-10-04T13:35:07.917Z,101207.56
2022-10-04T13:37:35.604Z,101214.88
2022-10-04T13:40:01.757Z,101211.81
2022-10-04T13:42:27.897Z,101208.66
2022-10-04T13:44:54.082Z,101206.94
2022-10-04T13:47:20.225Z,101205.56
2022-10-04T13:49:46.392Z,101205.22
2022-10-04T13:52:12.604Z,101205.84
2022-10-04T13:54:38.727Z,101208.28
2022-10-04T13:57:04.835Z,101205.13
2022-10-04T13:59:34.546Z,101205.44
2022-10-04T14:02:01.300Z,101198.44
2022-10-04T14:04:27.477Z,101200.03
2022-10-04T14:06:53.651Z,101192.53
2022-10-04T14:09:19.797Z,101198.09
2022-10-04T14:11:46.126Z,101196.81
2022-10-04T14:14:12.431Z,101189.97
2022-10-04T14:16:38.633Z,101192.72
2022-10-04T14:19:04.908Z,101192.72
2022-10-04T14:21:31.024Z,101188.66
2022-10-04T14:23:57.243Z,101182.19
2022-10-04T14:26:25.557Z,101178.28
2022-10-04T14:28:51.717Z,101177.19
2022-10-04T14:31:17.947Z,101172.59
2022-10-04T14:33:44.129Z,101172.88
2022-10-04T14:36:10.303Z,101170.16
2022-10-04T14:38:36.425Z,101173.88
2022-10-04T14:41:02.640Z,101171.94
2022-10-04T14:43:28.884Z,101163.56
2022-10-04T14:45:55.099Z,101166.25
2022-10-04T14:48:21.328Z,101165.59
2022-10-04T14:50:47.517Z,101160.81
2022-10-04T14:53:13.760Z,101160.69
2022-10-04T14:55:39.981Z,101165.03
2022-10-04T14:58:06.157Z,101164.72
2022-10-04T15:00:32.504Z,101164.47
2022-10-04T15:03:04.338Z,101165.91
2022-10-04T15:05:31.552Z,101156.06
2022-10-04T15:07:57.670Z,101157.28
2022-10-04T15:10:23.884Z,101153.84
2022-10-04T15:15:40.670Z,101141.06
2022-10-04T15:20:46.927Z,101144.06
2022-10-04T15:23:13.108Z,101134.81
2022-10-04T15:25:39.271Z,101138.53
2022-10-04T15:28:05.584Z,101134.06
2022-10-04T15:30:31.788Z,101135.16
2022-10-04T15:32:57.977Z,101133.50
2022-10-04T15:35:24.105Z,101139.06
2022-10-04T15:37:59.317Z,101134.22
2022-10-04T15:40:25.566Z,101131.78
2022-10-04T15:42:52.880Z,101136.31
2022-10-04T15:45:19.054Z,101129.38
2022-10-04T15:47:45.253Z,101134.75
2022-10-04T15:50:11.449Z,101127.84
2022-10-04T15:52:37.658Z,101140.16
2022-10-04T15:55:03.829Z,101131.56
2022-10-04T15:57:30.098Z,101132.59
2022-10-04T16:00:02.506Z,101130.78
2022-10-04T16:02:28.695Z,101129.47
2022-10-04T16:07:44.710Z,101130.69
2022-10-04T16:10:10.893Z,101137.94
2022-10-04T16:12:37.425Z,101136.09
2022-10-04T16:15:03.618Z,101143.00
2022-10-04T16:17:29.751Z,101126.09
2022-10-04T16:19:56.076Z,101128.34
2022-10-04T16:22:22.250Z,101129.09
2022-10-04T16:24:48.360Z,101136.84
2022-10-04T16:27:14.503Z,101120.84
2022-10-04T16:29:40.834Z,101122.94
2022-10-04T16:32:06.947Z,101118.72
2022-10-04T16:34:33.132Z,101128.97
2022-10-04T16:36:59.298Z,101135.84
2022-10-04T16:39:25.439Z,101132.53
2022-10-04T16:41:51.819Z,101128.09
2022-10-04T16:44:18.114Z,101125.31
2022-10-04T16:46:44.570Z,101111.53
2022-10-04T16:49:10.828Z,101117.53
2022-10-04T16:51:37.024Z,101101.59
2022-10-04T16:54:03.249Z,101108.41
2022-10-04T16:56:29.498Z,101112.41
2022-10-04T16:58:55.790Z,101104.22
2022-10-04T17:01:22.055Z,101099.47
2022-10-04T17:03:48.376Z,101112.50
2022-10-04T17:06:14.597Z,101109.97
2022-10-04T17:08:40.727Z,101109.28
2022-10-04T17:11:06.875Z,101121.13
2022-10-04T17:13:33.118Z,101127.13
2022-10-04T17:15:59.342Z,101128.50
2022-10-04T17:18:26.766Z,101134.91
2022-10-04T17:20:52.906Z,101138.78
2022-10-04T17:23:19.043Z,101137.03
2022-10-04T17:25:45.250Z,101144.47
2022-10-04T17:28:11.460Z,101148.94
2022-10-04T17:30:37.749Z,101146.41
2022-10-04T17:33:03.915Z,101143.47
2022-10-04T17:35:30.035Z,101146.31
2022-10-04T17:37:56.166Z,101153.69
2022-10-04T17:40:22.331Z,101154.09
2022-10-04T17:42:48.493Z,101158.72
2022-10-04T17:45:14.622Z,101163.59
2022-10-04T17:47:40.786Z,101174.50
2022-10-04T17:50:06.919Z,101172.19
2022-10-04T17:52:33.077Z,101177.63
2022-10-04T17:54:59.223Z,101175.00
2022-10-04T17:57:25.393Z,101166.28
2022-10-04T17:59:51.523Z,101168.19
2022-10-04T18:02:17.793Z,101173.09
2022-10-04T18:04:47.206Z,101169.69
2022-10-04T18:07:13.369Z,101174.72
2022-10-04T18:09:39.518Z,101167.00
2022-10-04T18:12:05.660Z,101170.47
2022-10-04T18:14:31.834Z,101155.16
2022-10-04T18:16:58.037Z,101161.59
2022-10-04T18:19:24.185Z,101163.78
2022-10-04T18:21:50.358Z,101164.59
2022-10-04T18:24:16.505Z,101172.38
2022-10-04T18:26:43.331Z,101179.28
2022-10-04T18:29:09.758Z,101175.13
2022-10-04T18:31:35.997Z,101178.03
2022-10-04T18:34:02.279Z,101169.56
2022-10-04T18:36:28.454Z,101176.06
2022-10-04T18:38:54.620Z,101182.34
2022-10-04T18:41:20.781Z,101175.66
2022-10-04T18:43:46.900Z,101174.94
2022-10-04T18:46:13.195Z,101170.72
2022-10-04T18:48:39.396Z,101178.88
2022-10-04T18:51:09.229Z,101179.00
2022-10-04T18:53:35.607Z,101183.06
2022-10-04T18:56:01.740Z,101181.31
2022-10-04T18:58:27.930Z,101187.75
2022-10-04T19:00:54.170Z,101183.47
2022-10-04T19:03:20.387Z,101187.03
2022-10-04T19:05:46.555Z,101196.81
2022-10-04T19:08:16.622Z,101188.31
2022-10-04T19:10:45.500Z,101185.97
2022-10-04T19:13:11.732Z,101189.59
2022-10-04T19:15:37.971Z,101185.22
2022-10-04T19:18:05.219Z,101190.63
2022-10-04T19:20:31.367Z,101192.69
2022-10-04T19:22:57.533Z,101193.75
2022-10-04T19:25:23.669Z,101201.63
2022-10-04T19:27:49.870Z,101198.28
2022-10-04T19:30:16.026Z,101208.94
2022-10-04T19:32:42.190Z,101211.66
2022-10-04T19:35:08.525Z,101225.81
2022-10-04T19:37:34.662Z,101220.16
2022-10-04T19:40:00.809Z,101228.03
2022-10-04T19:42:26.943Z,101227.13
2022-10-04T19:44:53.102Z,101238.69
2022-10-04T19:47:19.257Z,101237.06
2022-10-04T19:49:45.454Z,101232.66
2022-10-04T19:52:11.601Z,101233.72
2022-10-04T19:54:37.794Z,101228.38
2022-10-04T19:57:03.936Z,101228.69
2022-10-04T19:59:30.081Z,101233.16
2022-10-04T20:01:56.375Z,101237.38
2022-10-04T20:04:22.582Z,101246.38
2022-10-04T20:06:48.989Z,101247.56
2022-10-04T20:09:15.392Z,101245.91
2022-10-04T20:11:41.557Z,101241.66
2022-10-04T20:14:07.683Z,101240.09
2022-10-04T20:16:33.987Z,101235.22
2022-10-04T20:19:00.251Z,101243.94
2022-10-04T20:21:26.684Z,101250.13
2022-10-04T20:23:56.211Z,101253.84
2022-10-04T20:26:22.950Z,101261.56
2022-10-04T20:28:49.074Z,101263.38
2022-10-04T20:31:15.320Z,101263.53
2022-10-04T20:33:41.469Z,101260.25
2022-10-04T20:36:07.663Z,101253.34
2022-10-04T20:38:40.571Z,101251.66
2022-10-04T20:41:10.831Z,101245.63
2022-10-04T20:43:36.999Z,101247.38
2022-10-04T20:46:03.301Z,101253.84
2022-10-04T20:48:29.530Z,101261.84
2022-10-04T20:50:55.677Z,101262.03
2022-10-04T20:53:21.823Z,101271.91
2022-10-04T20:55:47.969Z,101276.38
2022-10-04T20:58:14.102Z,101276.41
2022-10-04T21:00:40.268Z,101278.91
2022-10-04T21:03:06.399Z,101274.50
2022-10-04T21:05:32.535Z,101277.22
2022-10-04T21:07:58.692Z,101279.97
2022-10-04T21:10:24.846Z,101283.44
2022-10-04T21:12:50.979Z,101283.47
2022-10-04T21:15:17.145Z,101280.91
2022-10-04T21:17:43.285Z,101281.41
2022-10-04T21:20:09.458Z,101278.09
2022-10-04T21:22:35.604Z,101279.00
2022-10-04T21:25:01.745Z,101277.28
2022-10-04T21:27:27.892Z,101281.56
2022-10-04T21:29:55.088Z,101278.06
2022-10-04T21:32:21.218Z,101271.94
2022-10-04T21:34:54.947Z,101271.97
2022-10-04T21:37:21.192Z,101274.63
2022-10-04T21:39:47.359Z,101265.22
2022-10-04T21:42:13.484Z,101265.06
2022-10-04T21:44:39.643Z,101260.84
2022-10-04T21:47:05.780Z,101265.19
2022-10-04T21:49:31.931Z,101261.75
2022-10-04T21:51:58.060Z,101263.56
2022-10-04T21:54:24.201Z,101255.84
2022-10-04T21:56:50.352Z,101252.38
2022-10-04T21:59:17.553Z,101259.25
2022-10-04T22:01:43.800Z,101256.97
2022-10-04T22:04:09.913Z,101251.84
2022-10-04T22:06:36.059Z,101252.78
2022-10-04T22:09:02.197Z,101245.94
2022-10-04T22:11:28.414Z,101245.97
2022-10-04T22:13:54.602Z,101233.78
2022-10-04T22:16:20.774Z,101240.63
2022-10-04T22:18:46.959Z,101239.66
2022-10-04T22:21:13.086Z,101240.44
2022-10-04T22:23:39.205Z,101229.06
2022-10-04T22:26:05.349Z,101235.03
2022-10-04T22:28:31.522Z,101244.56
2022-10-04T22:30:57.638Z,101236.84
2022-10-04T22:33:23.793Z,101242.09
2022-10-04T22:35:50.118Z,101244.66
2022-10-04T22:38:16.240Z,101238.53
2022-10-04T22:40:42.396Z,101243.75
2022-10-04T22:43:08.539Z,101240.31
2022-10-04T22:45:34.731Z,101243.72
2022-10-04T22:48:00.889Z,101239.38
2022-10-04T22:50:27.019Z,101242.91
2022-10-04T22:52:53.136Z,101238.47
2022-10-04T22:55:19.261Z,101228.00
2022-10-04T22:57:45.398Z,101222.66
2022-10-04T23:00:11.516Z,101229.53
2022-10-04T23:02:37.684Z,101230.34
2022-10-04T23:05:03.916Z,101226.88
2022-10-04T23:07:31.942Z,101227.69
2022-10-04T23:10:01.127Z,101221.59
2022-10-04T23:12:27.371Z,101216.44
2022-10-04T23:14:53.511Z,101212.03
2022-10-04T23:17:19.629Z,101212.03
2022-10-04T23:19:45.806Z,101206.81
2022-10-04T23:22:11.932Z,101208.56
2022-10-04T23:24:38.085Z,101199.81
2022-10-04T23:27:04.218Z,101198.91
2022-10-04T23:29:30.470Z,101205.03
2022-10-04T23:31:56.724Z,101201.47
2022-10-04T23:34:22.945Z,101196.31
2022-10-04T23:36:49.480Z,101202.38
2022-10-04T23:39:15.908Z,101198.91
2022-10-04T23:41:42.129Z,101204.06
2022-10-04T23:44:08.264Z,101203.22
2022-10-04T23:46:34.381Z,101193.78
2022-10-04T23:49:00.521Z,101190.38
2022-10-04T23:51:26.656Z,101202.69
2022-10-04T23:53:52.822Z,101204.44
2022-10-04T23:56:18.957Z,101203.56
2022-10-04T23:58:45.106Z,101200.16
